Time;durP1;ratioP1;P1;durP2;ratioP2;P2;SDS_P1;SDS_P2;PMS_P1;PMS_P2;Temp;Humidity;BMP_temperature;BMP_pressure;BME280_temperature;BME280_humidity;BME280_pressure;Samples;Min_cycle;Max_cycle;Signal;HPM_P1;HPM_P2
2022/07/04 00:00:02;;;;;;;6.13;2.22;;;15.50;99.90;;;;;;5005350;28;20042;-68
2022/07/04 00:02:27;;;;;;;3.55;1.83;;;15.50;99.90;;;;;;5005562;28;20077;-69
2022/07/04 00:04:54;;;;;;;6.40;1.65;;;15.50;99.90;;;;;;5005915;28;20038;-68
2022/07/04 00:07:19;;;;;;;3.05;1.33;;;15.40;99.90;;;;;;5005318;28;20136;-69
2022/07/04 00:09:45;;;;;;;10.60;2.78;;;15.50;99.90;;;;;;5005522;28;20035;-68
2022/07/04 00:12:10;;;;;;;3.03;1.65;;;15.40;99.90;;;;;;5005726;28;20032;-68
2022/07/04 00:14:36;;;;;;;4.18;2.25;;;15.50;99.90;;;;;;5004719;28;20521;-68
2022/07/04 00:17:02;;;;;;;1.95;1.60;;;15.40;99.90;;;;;;5005451;28;20045;-67
2022/07/04 00:19:27;;;;;;;4.65;2.08;;;15.40;99.90;;;;;;5005049;28;20590;-69
2022/07/04 00:21:53;;;;;;;2.78;1.77;;;15.40;99.90;;;;;;5004845;28;20050;-68
2022/07/04 00:24:19;;;;;;;4.07;2.25;;;15.40;99.90;;;;;;5005198;28;20065;-69
2022/07/04 00:26:44;;;;;;;1.65;1.55;;;15.30;99.90;;;;;;5004784;28;20026;-67
2022/07/04 00:29:10;;;;;;;6.70;2.78;;;15.30;99.90;;;;;;5005141;28;20062;-67
2022/07/04 00:31:35;;;;;;;3.20;2.05;;;15.40;99.90;;;;;;5005039;28;20022;-68
2022/07/04 00:34:01;;;;;;;4.53;2.42;;;15.30;99.90;;;;;;5004587;28;20027;-68
2022/07/04 00:36:27;;;;;;;4.03;2.72;;;15.30;99.90;;;;;;5004557;28;20073;-68
2022/07/04 00:38:53;;;;;;;11.02;2.47;;;15.30;99.90;;;;;;5004670;28;20042;-69
2022/07/04 00:41:19;;;;;;;6.13;2.35;;;15.30;99.90;;;;;;5005277;28;20022;-69
2022/07/04 00:44:03;;;;;;;2.95;2.33;;;15.20;99.90;;;;;;5004751;28;20046;-68
2022/07/04 00:46:29;;;;;;;4.47;3.03;;;15.20;99.90;;;;;;5004469;28;20042;-68
2022/07/04 00:48:54;;;;;;;6.05;2.65;;;15.20;99.90;;;;;;5003051;28;20030;-69
2022/07/04 00:51:20;;;;;;;5.40;2.47;;;15.20;99.90;;;;;;5004653;28;20466;-67
2022/07/04 00:53:46;;;;;;;6.97;2.78;;;15.10;99.90;;;;;;5004930;28;20093;-69
2022/07/04 00:56:12;;;;;;;4.50;2.42;;;15.00;99.90;;;;;;5004910;28;20029;-69
2022/07/04 00:58:37;;;;;;;6.32;2.45;;;15.00;99.90;;;;;;5004448;28;20105;-68
2022/07/04 01:01:04;;;;;;;4.32;2.45;;;15.00;99.90;;;;;;5004643;28;20478;-68
2022/07/04 01:03:29;;;;;;;3.20;2.00;;;15.00;99.90;;;;;;5004100;28;20062;-68
2022/07/04 01:05:59;;;;;;;4.90;2.53;;;14.90;99.90;;;;;;5003962;28;20044;-70
2022/07/04 01:08:25;;;;;;;4.97;2.83;;;14.90;99.90;;;;;;5003416;28;20038;-69
2022/07/04 01:10:51;;;;;;;6.10;2.22;;;14.90;99.90;;;;;;5003603;28;20026;-68
2022/07/04 01:13:21;;;;;;;4.55;2.55;;;14.90;99.90;;;;;;5004541;28;20053;-67
2022/07/04 01:15:47;;;;;;;6.35;2.47;;;14.90;99.90;;;;;;5004553;28;20049;-69
2022/07/04 01:18:12;;;;;;;4.18;2.15;;;14.80;99.90;;;;;;5003217;28;20045;-68
2022/07/04 01:20:38;;;;;;;8.77;2.90;;;14.80;99.90;;;;;;5004106;28;20037;-69
2022/07/04 01:23:04;;;;;;;5.55;2.47;;;14.70;99.90;;;;;;5004137;28;20070;-69
2022/07/04 01:25:31;;;;;;;11.27;2.33;;;14.70;99.90;;;;;;5004156;28;20037;-71
2022/07/04 01:27:58;;;;;;;5.05;2.85;;;14.70;99.90;;;;;;5003997;28;20026;-68
2022/07/04 01:30:25;;;;;;;3.45;2.58;;;14.70;99.90;;;;;;5003583;28;20114;-69
2022/07/04 01:32:50;;;;;;;6.10;2.80;;;14.70;99.90;;;;;;5003874;28;20057;-70
2022/07/04 01:35:18;;;;;;;4.50;2.50;;;14.60;99.90;;;;;;5004116;28;20019;-70
2022/07/04 01:37:44;;;;;;;3.72;2.60;;;14.70;99.90;;;;;;5002855;28;20054;-69
2022/07/04 01:40:12;;;;;;;5.15;2.75;;;14.70;99.90;;;;;;5003841;28;20030;-69
2022/07/04 01:42:38;;;;;;;4.90;3.35;;;14.60;99.90;;;;;;5003539;28;20048;-69
2022/07/04 01:45:04;;;;;;;6.47;2.83;;;14.60;99.90;;;;;;5003414;28;20061;-69
2022/07/04 01:47:29;;;;;;;5.05;3.00;;;14.50;99.90;;;;;;5003349;28;20060;-69
2022/07/04 01:49:55;;;;;;;5.70;3.13;;;14.60;99.90;;;;;;5003593;28;20023;-68
2022/07/04 01:52:21;;;;;;;8.00;2.90;;;14.50;99.90;;;;;;5003540;28;20034;-70
2022/07/04 01:54:46;;;;;;;7.10;3.33;;;14.50;99.90;;;;;;5003764;28;20034;-69
2022/07/04 01:57:12;;;;;;;4.10;2.53;;;14.50;99.90;;;;;;5003666;28;20060;-68
2022/07/04 02:02:24;;;;;;;4.70;2.35;;;14.40;99.90;;;;;;5003266;28;20040;-67
2022/07/04 02:04:50;;;;;;;5.00;3.03;;;14.40;99.90;;;;;;5003297;28;20537;-69
2022/07/04 02:07:16;;;;;;;3.47;2.83;;;14.40;99.90;;;;;;5003479;28;20019;-69
2022/07/04 02:09:42;;;;;;;5.00;2.47;;;14.40;99.90;;;;;;5003010;28;20022;-68
2022/07/04 02:14:52;;;;;;;;;;;14.40;99.90;;;;;;5003426;28;20033;-68
2022/07/04 02:17:18;;;;;;;4.03;2.35;;;14.40;99.90;;;;;;5003452;28;19914;-68
2022/07/04 02:19:44;;;;;;;4.38;3.00;;;14.40;99.90;;;;;;5000697;28;20018;-69
2022/07/04 02:22:10;;;;;;;6.28;3.28;;;14.30;99.90;;;;;;5002844;28;20045;-68
2022/07/04 02:24:35;;;;;;;5.32;2.80;;;14.30;99.90;;;;;;5002874;28;20439;-68
2022/07/04 02:27:01;;;;;;;5.30;2.85;;;14.30;99.90;;;;;;5002751;28;20025;-68
2022/07/04 02:29:26;;;;;;;4.10;2.60;;;14.20;99.90;;;;;;5002809;28;20023;-68
2022/07/04 02:31:52;;;;;;;9.02;2.75;;;14.20;99.90;;;;;;5003164;28;20034;-67
2022/07/04 02:34:18;;;;;;;6.50;3.08;;;14.10;99.90;;;;;;5002935;28;20039;-67
2022/07/04 02:36:43;;;;;;;5.00;2.85;;;14.10;99.90;;;;;;5001894;28;20050;-68
2022/07/04 02:39:09;;;;;;;3.50;2.45;;;14.10;99.90;;;;;;5003002;28;20053;-68
2022/07/04 02:41:35;;;;;;;4.03;2.53;;;14.10;99.90;;;;;;5002287;28;20027;-69
2022/07/04 02:44:00;;;;;;;19.40;3.22;;;14.00;99.90;;;;;;5002794;28;20099;-67
2022/07/04 02:46:26;;;;;;;4.60;2.90;;;14.00;99.90;;;;;;5002728;28;20403;-68
2022/07/04 02:48:52;;;;;;;4.40;2.72;;;14.00;99.90;;;;;;5002597;28;20026;-69
2022/07/04 02:51:17;;;;;;;6.03;3.03;;;13.90;99.90;;;;;;5002856;28;20022;-68
2022/07/04 02:53:43;;;;;;;4.47;3.13;;;13.90;99.90;;;;;;5002761;28;20041;-69
2022/07/04 02:56:08;;;;;;;5.72;2.90;;;13.90;99.90;;;;;;5001962;28;20096;-68
2022/07/04 02:58:34;;;;;;;4.80;3.15;;;13.80;99.90;;;;;;5002574;28;20403;-69
2022/07/04 03:01:00;;;;;;;3.70;2.58;;;13.80;99.90;;;;;;5002642;28;20038;-68
2022/07/04 03:03:26;;;;;;;4.95;2.97;;;13.90;99.90;;;;;;5001772;28;20038;-70
2022/07/04 03:05:52;;;;;;;4.22;2.92;;;13.80;99.90;;;;;;5002790;28;20057;-69
2022/07/04 03:08:18;;;;;;;4.25;2.88;;;13.80;99.90;;;;;;5001942;28;20046;-69
2022/07/04 03:10:44;;;;;;;5.07;3.17;;;13.80;99.90;;;;;;5001869;28;20061;-68
2022/07/04 03:13:09;;;;;;;20.13;3.38;;;13.80;99.90;;;;;;5001837;28;20375;-70
2022/07/04 03:15:35;;;;;;;5.63;3.38;;;13.70;99.90;;;;;;5002298;28;20030;-68
2022/07/04 03:18:01;;;;;;;3.88;2.92;;;13.80;99.90;;;;;;5002114;28;20528;-69
2022/07/04 03:20:26;;;;;;;4.65;3.10;;;13.70;99.90;;;;;;5002060;28;20034;-69
2022/07/04 03:22:54;;;;;;;6.13;3.40;;;13.70;99.90;;;;;;5000650;28;20061;-68
2022/07/04 03:25:20;;;;;;;13.80;3.20;;;13.70;99.90;;;;;;5002029;28;20027;-68
2022/07/04 03:27:46;;;;;;;5.70;3.38;;;13.70;99.90;;;;;;5002477;28;20033;-68
2022/07/04 03:30:12;;;;;;;7.35;3.38;;;13.70;99.90;;;;;;5001660;28;20023;-68
2022/07/04 03:32:37;;;;;;;5.13;3.33;;;13.70;99.90;;;;;;5002200;28;20060;-67
2022/07/04 03:35:03;;;;;;;5.78;3.08;;;13.80;99.90;;;;;;5002365;28;20034;-68
2022/07/04 03:37:29;;;;;;;4.03;2.85;;;13.80;99.90;;;;;;5001534;28;20391;-68
2022/07/04 03:39:54;;;;;;;5.88;3.83;;;13.80;99.90;;;;;;5001521;28;20813;-69
2022/07/04 03:42:20;;;;;;;7.75;3.60;;;13.70;99.90;;;;;;5002310;28;20053;-69
2022/07/04 03:44:46;;;;;;;7.75;3.45;;;13.70;99.90;;;;;;5002046;28;20038;-68
2022/07/04 03:47:11;;;;;;;4.25;2.47;;;13.80;99.90;;;;;;5001713;28;20324;-70
2022/07/04 03:49:37;;;;;;;6.68;3.17;;;13.70;99.90;;;;;;5001879;28;20098;-65
2022/07/04 03:52:03;;;;;;;6.82;3.13;;;13.80;99.90;;;;;;5001034;28;20022;-69
2022/07/04 03:54:29;;;;;;;8.23;3.10;;;13.80;99.90;;;;;;5002061;28;20037;-68
2022/07/04 03:56:55;;;;;;;6.45;3.20;;;13.80;99.90;;;;;;5001890;28;20023;-68
2022/07/04 03:59:20;;;;;;;4.93;2.95;;;13.80;99.90;;;;;;5002031;28;20018;-68
2022/07/04 04:01:46;;;;;;;7.05;3.60;;;13.80;99.90;;;;;;5002335;28;20032;-70
2022/07/04 04:06:56;;;;;;;2.33;1.85;;;13.90;99.90;;;;;;5001299;28;20041;-69
2022/07/04 04:09:24;;;;;;;3.65;2.03;;;13.90;99.90;;;;;;5002311;28;20023;-69
2022/07/04 04:11:53;;;;;;;4.15;2.30;;;14.00;99.90;;;;;;5001532;28;20022;-68
2022/07/04 04:14:18;;;;;;;9.70;2.45;;;14.00;99.90;;;;;;5001499;28;20057;-69
2022/07/04 04:16:44;;;;;;;9.98;2.70;;;14.00;99.90;;;;;;5002023;28;20019;-70
2022/07/04 04:19:10;;;;;;;3.25;2.05;;;14.10;99.90;;;;;;5001376;28;20049;-69
2022/07/04 04:21:36;;;;;;;6.45;2.55;;;14.10;99.90;;;;;;5001667;28;20034;-68
2022/07/04 04:24:02;;;;;;;10.65;2.10;;;14.20;99.90;;;;;;4994269;28;20679;-68
2022/07/04 04:26:28;;;;;;;2.13;1.58;;;14.20;99.90;;;;;;5003065;28;20073;-68
2022/07/04 04:28:54;;;;;;;4.78;1.90;;;14.20;99.90;;;;;;5004725;28;20026;-70
2022/07/04 04:31:19;;;;;;;5.63;2.05;;;14.20;99.90;;;;;;5005347;28;20491;-67
2022/07/04 04:33:45;;;;;;;2.90;1.63;;;14.20;99.90;;;;;;5005217;28;20030;-69
2022/07/04 04:36:11;;;;;;;2.72;1.55;;;14.30;99.90;;;;;;5004858;28;20038;-68
2022/07/04 04:38:37;;;;;;;3.55;2.03;;;14.30;99.90;;;;;;4997465;28;20054;-69
2022/07/04 04:41:02;;;;;;;3.00;1.85;;;14.30;99.90;;;;;;5004716;28;20106;-68
2022/07/04 04:43:28;;;;;;;16.13;1.80;;;14.30;99.90;;;;;;5004988;28;20038;-70
2022/07/04 04:45:54;;;;;;;3.75;1.52;;;14.30;99.90;;;;;;5003947;28;20042;-69
2022/07/04 04:48:19;;;;;;;4.60;2.03;;;14.40;99.90;;;;;;5003540;28;20050;-68
2022/07/04 04:50:45;;;;;;;2.15;1.60;;;14.40;99.90;;;;;;5005110;28;20031;-69
2022/07/04 04:53:12;;;;;;;3.10;2.00;;;14.50;99.90;;;;;;5003386;28;20030;-67
2022/07/04 04:55:38;;;;;;;4.00;2.08;;;14.50;99.90;;;;;;4999053;28;20018;-68
2022/07/04 04:58:03;;;;;;;8.05;1.52;;;14.50;99.90;;;;;;5004434;28;20033;-67
2022/07/04 05:00:29;;;;;;;2.53;1.70;;;14.60;99.90;;;;;;5003902;28;20050;-67
2022/07/04 05:02:54;;;;;;;2.30;1.17;;;14.60;99.90;;;;;;5003715;28;20134;-67
2022/07/04 05:05:20;;;;;;;2.50;1.80;;;14.70;99.90;;;;;;5004986;28;20445;-69
2022/07/04 05:07:45;;;;;;;6.30;1.90;;;14.70;99.90;;;;;;4995567;28;20039;-69
2022/07/04 05:10:11;;;;;;;1.77;1.15;;;14.80;99.90;;;;;;5001340;28;20026;-68
2022/07/04 05:12:37;;;;;;;2.92;1.13;;;14.80;99.90;;;;;;5004216;28;20080;-67
2022/07/04 05:15:03;;;;;;;4.28;2.20;;;14.90;99.90;;;;;;5002565;28;20022;-68
2022/07/04 05:17:28;;;;;;;3.28;1.45;;;15.00;99.90;;;;;;5003944;28;20077;-67
2022/07/04 05:19:54;;;;;;;11.25;1.55;;;15.10;99.90;;;;;;5002735;28;20022;-69
2022/07/04 05:22:20;;;;;;;2.13;1.70;;;15.10;99.90;;;;;;5003781;28;20029;-69
2022/07/04 05:24:45;;;;;;;1.92;1.15;;;15.20;99.90;;;;;;5004172;28;20103;-66
2022/07/04 05:27:11;;;;;;;2.25;1.27;;;15.30;99.90;;;;;;5004197;28;20470;-68
2022/07/04 05:29:37;;;;;;;1.77;1.33;;;15.30;99.90;;;;;;5003728;28;20177;-68
2022/07/04 05:32:04;;;;;;;2.78;1.48;;;15.40;99.90;;;;;;5001850;28;20034;-67
2022/07/04 05:34:29;;;;;;;2.22;1.20;;;15.40;99.90;;;;;;5002971;28;20026;-68
2022/07/04 05:36:55;;;;;;;2.05;1.50;;;15.40;99.90;;;;;;5002565;28;20081;-67
2022/07/04 05:39:22;;;;;;;2.33;1.48;;;15.50;99.90;;;;;;5004237;28;20034;-68
2022/07/04 05:41:47;;;;;;;6.85;1.67;;;15.50;99.90;;;;;;5003517;28;20030;-67
2022/07/04 05:44:13;;;;;;;10.27;1.45;;;15.50;99.90;;;;;;5002243;28;20470;-67
2022/07/04 05:46:38;;;;;;;11.15;1.95;;;15.60;99.90;;;;;;5002133;28;20026;-68
2022/07/04 05:49:04;;;;;;;1.80;1.15;;;15.60;99.90;;;;;;5002667;28;20363;-68
2022/07/04 05:51:30;;;;;;;14.65;1.42;;;15.70;99.90;;;;;;5001254;28;20022;-68
2022/07/04 05:53:55;;;;;;;1.88;1.30;;;15.80;99.90;;;;;;5000359;28;20034;-68
2022/07/04 05:56:21;;;;;;;11.15;0.88;;;15.80;99.90;;;;;;5001539;28;20034;-69
2022/07/04 05:58:47;;;;;;;1.67;1.20;;;15.80;99.90;;;;;;4997738;28;20023;-67
2022/07/04 06:01:13;;;;;;;2.05;1.20;;;15.80;99.90;;;;;;5002394;28;20029;-67
2022/07/04 06:03:38;;;;;;;2.20;1.10;;;15.90;99.90;;;;;;5003008;28;20046;-69
2022/07/04 06:06:04;;;;;;;1.92;0.88;;;16.00;99.90;;;;;;5002282;28;20077;-65
2022/07/04 06:08:31;;;;;;;1.67;1.52;;;16.00;99.90;;;;;;5001186;28;20031;-67
2022/07/04 06:10:56;;;;;;;1.65;0.77;;;16.00;99.90;;;;;;5000146;28;20033;-66
2022/07/04 06:13:22;;;;;;;3.95;1.05;;;16.00;99.90;;;;;;5001559;28;20038;-67
2022/07/04 06:15:48;;;;;;;1.52;1.00;;;16.00;99.90;;;;;;5002837;28;20026;-67
2022/07/04 06:18:15;;;;;;;1.58;0.95;;;16.10;99.90;;;;;;5001445;28;20022;-67
2022/07/04 06:20:41;;;;;;;11.65;1.23;;;16.20;99.90;;;;;;5001972;28;20046;-67
2022/07/04 06:23:07;;;;;;;7.30;1.35;;;16.20;99.90;;;;;;5002645;28;20042;-68
2022/07/04 06:25:33;;;;;;;1.30;0.70;;;16.30;99.90;;;;;;5002171;28;20018;-67
2022/07/04 06:27:59;;;;;;;0.98;0.70;;;16.40;99.90;;;;;;5002775;28;20030;-68
2022/07/04 06:30:25;;;;;;;2.28;0.90;;;16.40;99.90;;;;;;4999761;28;20038;-67
2022/07/04 06:32:53;;;;;;;1.33;0.80;;;16.40;99.90;;;;;;5000426;28;20031;-67
2022/07/04 06:38:06;;;;;;;0.95;0.82;;;16.50;99.90;;;;;;4999546;28;20049;-68
2022/07/04 06:40:32;;;;;;;1.35;0.60;;;16.60;99.90;;;;;;5000983;28;20022;-68
2022/07/04 06:42:57;;;;;;;2.40;0.95;;;16.70;99.90;;;;;;5002409;28;20049;-68
2022/07/04 06:45:23;;;;;;;1.17;0.50;;;16.70;99.90;;;;;;4999699;28;20026;-69
2022/07/04 06:47:50;;;;;;;1.27;0.70;;;16.70;99.90;;;;;;5002424;28;20085;-71
2022/07/04 06:50:17;;;;;;;1.42;0.47;;;16.80;99.90;;;;;;4999263;28;20053;-68
2022/07/04 06:52:43;;;;;;;6.05;1.05;;;16.90;99.90;;;;;;5002340;28;20027;-68
2022/07/04 06:55:09;;;;;;;0.95;0.70;;;16.90;99.90;;;;;;5001018;28;20034;-67
2022/07/04 06:57:35;;;;;;;6.30;0.77;;;16.90;99.90;;;;;;4998965;28;20026;-68
2022/07/04 07:00:00;;;;;;;1.70;0.50;;;17.00;99.90;;;;;;5000087;28;20100;-68
2022/07/04 07:02:26;;;;;;;1.95;0.90;;;17.10;99.90;;;;;;5000825;28;20089;-67
2022/07/04 07:04:56;;;;;;;1.42;0.93;;;17.10;99.90;;;;;;5002335;28;20138;-68
2022/07/04 07:07:24;;;;;;;2.05;0.68;;;17.20;99.90;;;;;;5000182;28;20038;-69
2022/07/04 07:09:53;;;;;;;0.45;0.45;;;17.20;99.90;;;;;;5000590;28;20053;-68
2022/07/04 07:12:18;;;;;;;1.30;0.70;;;17.30;99.90;;;;;;5002208;28;20074;-68
2022/07/04 07:14:44;;;;;;;2.33;0.50;;;17.30;99.90;;;;;;5001128;28;20081;-68
2022/07/04 07:17:10;;;;;;;4.10;0.65;;;17.30;99.90;;;;;;5002186;28;20030;-69
2022/07/04 07:19:35;;;;;;;0.75;0.50;;;17.40;99.90;;;;;;5001877;28;20046;-68
2022/07/04 07:22:01;;;;;;;0.88;0.50;;;17.40;99.90;;;;;;5000721;28;20102;-68
2022/07/04 07:24:30;;;;;;;4.28;0.60;;;17.50;99.90;;;;;;5001329;28;20042;-67
2022/07/04 07:26:56;;;;;;;1.00;0.60;;;17.50;99.90;;;;;;5001819;28;20023;-68
2022/07/04 07:29:21;;;;;;;2.72;0.40;;;17.50;99.90;;;;;;5000661;28;20042;-68
2022/07/04 07:31:47;;;;;;;1.75;0.68;;;17.60;99.90;;;;;;5001541;28;20033;-70
2022/07/04 07:34:13;;;;;;;0.77;0.40;;;17.70;99.90;;;;;;5000590;28;20030;-69
2022/07/04 07:36:38;;;;;;;1.45;0.55;;;17.70;99.90;;;;;;4997673;28;20035;-66
2022/07/04 07:39:04;;;;;;;4.50;0.68;;;17.80;99.90;;;;;;5000680;28;20053;-68
2022/07/04 07:41:29;;;;;;;2.15;0.63;;;17.80;99.90;;;;;;5001546;28;20030;-70
2022/07/04 07:43:55;;;;;;;0.80;0.57;;;17.80;99.90;;;;;;5001471;28;20042;-68
2022/07/04 07:46:20;;;;;;;1.30;0.60;;;17.90;99.90;;;;;;5002016;28;20026;-69
2022/07/04 07:48:46;;;;;;;3.63;0.50;;;18.00;99.90;;;;;;5001733;28;20030;-70
2022/07/04 07:51:13;;;;;;;1.17;0.70;;;18.00;99.90;;;;;;5001927;28;20027;-67
2022/07/04 07:53:39;;;;;;;2.85;0.70;;;18.10;99.90;;;;;;5000060;28;20030;-70
2022/07/04 07:56:05;;;;;;;1.30;0.52;;;18.20;99.90;;;;;;4999868;28;20038;-68
2022/07/04 07:58:30;;;;;;;1.08;0.50;;;18.20;99.90;;;;;;5003224;28;20030;-69
2022/07/04 08:00:56;;;;;;;0.70;0.32;;;18.30;99.90;;;;;;5005749;28;20019;-71
2022/07/04 08:06:07;;;;;;;5.50;0.82;;;18.40;99.90;;;;;;5005263;28;20037;-69
2022/07/04 08:08:33;;;;;;;1.10;0.55;;;18.60;99.90;;;;;;5004248;28;20485;-68
2022/07/04 08:10:59;;;;;;;0.17;0.15;;;18.70;99.90;;;;;;5002358;28;20086;-69
2022/07/04 08:13:24;;;;;;;1.75;0.30;;;18.80;99.90;;;;;;5001412;28;20057;-68
2022/07/04 08:15:50;;;;;;;0.40;0.38;;;18.80;99.90;;;;;;5003855;28;20071;-69
2022/07/04 08:18:17;;;;;;;0.40;0.30;;;18.80;99.90;;;;;;5001518;28;20030;-69
2022/07/04 08:20:43;;;;;;;0.40;0.35;;;18.90;99.90;;;;;;5001263;28;20046;-70
2022/07/04 08:23:10;;;;;;;1.42;0.70;;;19.00;99.90;;;;;;5003087;28;20065;-69
2022/07/04 08:25:35;;;;;;;3.08;0.68;;;19.00;99.90;;;;;;5003607;28;20027;-66
2022/07/04 08:28:01;;;;;;;1.73;0.80;;;19.10;99.90;;;;;;5004803;28;20030;-69
2022/07/04 08:30:27;;;;;;;0.68;0.45;;;19.20;99.90;;;;;;5004536;28;20030;-69
2022/07/04 08:32:52;;;;;;;0.52;0.30;;;19.30;99.90;;;;;;5005313;28;20105;-70
2022/07/04 08:35:18;;;;;;;5.40;0.95;;;19.30;99.90;;;;;;5004613;28;20037;-69
2022/07/04 08:37:44;;;;;;;0.40;0.32;;;19.30;99.90;;;;;;5004784;28;20086;-69
2022/07/04 08:40:10;;;;;;;1.58;0.82;;;19.30;99.90;;;;;;5005033;28;20086;-66
2022/07/04 08:42:38;;;;;;;0.10;0.10;;;19.40;99.90;;;;;;5004816;28;20022;-67
2022/07/04 08:45:06;;;;;;;5.70;0.60;;;19.50;99.90;;;;;;5004813;28;20022;-66
2022/07/04 08:47:35;;;;;;;2.10;0.57;;;19.60;99.90;;;;;;5004526;28;20029;-67
2022/07/04 08:50:20;;;;;;;1.25;0.77;;;19.60;99.90;;;;;;5004573;28;20042;-67
2022/07/04 08:52:55;;;;;;;3.13;0.50;;;19.70;99.90;;;;;;5003897;28;20422;-67
2022/07/04 08:58:26;;;;;;;0.98;0.50;;;19.90;99.90;;;;;;5004062;28;20060;-67
2022/07/04 09:01:00;;;;;;;0.75;0.57;;;19.80;99.90;;;;;;5004654;28;20035;-68
2022/07/04 09:03:27;;;;;;;4.95;1.05;;;19.90;99.90;;;;;;5003403;28;20034;-69
2022/07/04 09:05:53;;;;;;;1.10;0.63;;;19.90;99.90;;;;;;5004937;28;20033;-68
2022/07/04 09:08:19;;;;;;;1.77;0.68;;;20.10;99.90;;;;;;5004827;28;20050;-69
2022/07/04 09:10:47;;;;;;;1.95;0.50;;;20.20;99.90;;;;;;5001790;28;20026;-69
2022/07/04 09:13:14;;;;;;;0.70;0.45;;;20.30;99.90;;;;;;5002837;28;20041;-68
2022/07/04 09:15:47;;;;;;;2.78;0.60;;;20.40;99.90;;;;;;5002132;28;20030;-69
2022/07/04 09:18:29;;;;;;;1.63;0.65;;;20.50;99.90;;;;;;4998168;28;20026;-69
2022/07/04 09:20:58;;;;;;;0.50;0.30;;;20.70;99.90;;;;;;4992549;28;20042;-69
2022/07/04 09:23:26;;;;;;;0.35;0.30;;;20.90;99.90;;;;;;5000198;28;20057;-69
2022/07/04 09:26:13;;;;;;;0.75;0.50;;;21.00;99.90;;;;;;4997152;28;20030;-68
2022/07/04 09:28:42;;;;;;;0.65;0.52;;;21.20;99.90;;;;;;4999729;28;20338;-69
2022/07/04 09:31:26;;;;;;;0.82;0.30;;;21.30;99.90;;;;;;4999147;28;20043;-68
2022/07/04 09:34:03;;;;;;;0.60;0.50;;;21.40;99.90;;;;;;5002358;28;20034;-68
2022/07/04 09:36:38;;;;;;;0.60;0.38;;;21.30;99.90;;;;;;5001102;28;20041;-68
2022/07/04 09:39:18;;;;;;;0.65;0.47;;;21.20;99.90;;;;;;5002690;28;20038;-69
2022/07/04 09:42:04;;;;;;;0.93;0.50;;;21.20;99.90;;;;;;4999138;28;20026;-67
2022/07/04 09:44:46;;;;;;;8.65;0.70;;;21.40;99.90;;;;;;5001229;28;20050;-67
2022/07/04 09:47:27;;;;;;;1.35;0.45;;;21.40;99.90;;;;;;5001601;28;20034;-67
2022/07/04 09:50:19;;;;;;;2.67;0.80;;;21.60;99.90;;;;;;4993863;28;20045;-69
2022/07/04 09:52:57;;;;;;;1.95;0.88;;;21.60;99.90;;;;;;5000661;28;20076;-69
2022/07/04 09:55:38;;;;;;;0.47;0.45;;;21.80;99.90;;;;;;4999522;28;20051;-68
2022/07/04 09:58:09;;;;;;;0.50;0.47;;;21.70;99.90;;;;;;5001556;28;20057;-67
2022/07/04 10:00:36;;;;;;;0.40;0.40;;;21.80;99.90;;;;;;5001957;28;20678;-69
2022/07/04 10:03:19;;;;;;;0.57;0.30;;;21.70;99.90;;;;;;5001472;28;20053;-70
2022/07/04 10:06:07;;;;;;;4.40;0.70;;;21.60;99.90;;;;;;5002043;28;20026;-69
2022/07/04 10:08:33;;;;;;;0.80;0.45;;;21.50;99.90;;;;;;5001639;28;20041;-69
2022/07/04 10:11:00;;;;;;;1.50;0.38;;;21.50;99.90;;;;;;5001724;28;20041;-71
2022/07/04 10:13:26;;;;;;;13.15;0.68;;;21.30;99.90;;;;;;5000419;28;20030;-69
2022/07/04 10:15:55;;;;;;;2.97;1.15;;;21.40;99.90;;;;;;4998426;28;20035;-70
2022/07/04 10:18:23;;;;;;;1.38;0.88;;;21.30;99.90;;;;;;5001009;28;20030;-72
2022/07/04 10:20:50;;;;;;;1.35;0.63;;;21.30;99.90;;;;;;5001714;28;20026;-67
2022/07/04 10:23:17;;;;;;;1.55;0.60;;;21.60;99.90;;;;;;5002492;28;20053;-68
2022/07/04 10:25:45;;;;;;;0.45;0.40;;;21.60;99.90;;;;;;5002405;28;20105;-69
2022/07/04 10:28:11;;;;;;;0.80;0.47;;;21.50;99.90;;;;;;5002124;28;20526;-69
2022/07/04 10:30:38;;;;;;;1.05;0.73;;;21.40;99.90;;;;;;5001962;28;20030;-69
2022/07/04 10:33:07;;;;;;;1.65;0.75;;;21.30;99.90;;;;;;5001972;28;20479;-69
2022/07/04 10:35:55;;;;;;;1.35;0.55;;;21.40;99.90;;;;;;5001597;28;20026;-69
2022/07/04 10:38:26;;;;;;;1.40;0.40;;;21.40;99.90;;;;;;5000027;28;20042;-71
2022/07/04 10:41:03;;;;;;;0.20;0.20;;;21.50;99.90;;;;;;5001645;28;20041;-69
2022/07/04 10:46:12;;;;;;;1.08;0.50;;;21.70;99.90;;;;;;5001786;28;20026;-68
2022/07/04 10:48:49;;;;;;;2.15;0.63;;;21.80;99.90;;;;;;5002224;28;20030;-68
2022/07/04 10:51:15;;;;;;;1.15;0.63;;;22.00;99.90;;;;;;5000983;28;20062;-68
2022/07/04 10:54:02;;;;;;;1.58;0.68;;;22.20;99.90;;;;;;5001703;28;20220;-69
2022/07/04 10:56:28;;;;;;;1.20;0.70;;;22.30;99.90;;;;;;5001594;28;20034;-69
2022/07/04 10:58:57;;;;;;;3.33;0.77;;;22.40;99.90;;;;;;5002106;28;20022;-73
2022/07/04 11:01:23;;;;;;;0.40;0.40;;;22.50;99.90;;;;;;5001153;28;20022;-68
2022/07/04 11:03:53;;;;;;;3.42;0.60;;;22.50;99.90;;;;;;5000723;28;20088;-69
2022/07/04 11:06:38;;;;;;;0.75;0.60;;;22.60;99.90;;;;;;5001012;28;20038;-71
2022/07/04 11:09:12;;;;;;;2.00;0.68;;;22.70;99.90;;;;;;4999667;28;20061;-69
2022/07/04 11:12:05;;;;;;;0.50;0.50;;;22.80;99.90;;;;;;5000696;28;20061;-68
2022/07/04 11:14:34;;;;;;;2.20;0.80;;;22.80;99.90;;;;;;4999937;28;20133;-68
2022/07/04 11:17:00;;;;;;;1.92;0.55;;;22.90;99.90;;;;;;5000436;28;20113;-67
2022/07/04 11:19:27;;;;;;;1.38;0.68;;;23.00;99.90;;;;;;5001241;28;20029;-68
2022/07/04 11:21:54;;;;;;;1.42;0.55;;;23.10;99.90;;;;;;5000916;28;20042;-69
2022/07/04 11:24:20;;;;;;;0.70;0.50;;;23.40;99.90;;;;;;5000557;28;20102;-68
2022/07/04 11:26:46;;;;;;;0.88;0.40;;;23.50;99.90;;;;;;5000908;28;20031;-69
2022/07/04 11:29:15;;;;;;;0.63;0.40;;;23.80;99.90;;;;;;4999537;28;20138;-70
2022/07/04 11:31:43;;;;;;;0.30;0.30;;;23.90;99.90;;;;;;4999784;28;20279;-70
2022/07/04 11:34:10;;;;;;;1.40;0.35;;;24.00;99.90;;;;;;5002576;28;20033;-70
2022/07/04 11:36:37;;;;;;;0.57;0.55;;;24.00;99.90;;;;;;5004411;28;20879;-69
2022/07/04 11:39:05;;;;;;;1.55;0.75;;;23.90;99.90;;;;;;5003040;28;20271;-69
2022/07/04 11:47:12;;;;;;;1.00;0.60;;;23.30;99.90;;;;;;5002806;28;20141;-70
2022/07/04 11:49:52;;;;;;;0.60;0.30;;;23.40;99.90;;;;;;5004183;28;20029;-69
2022/07/04 11:52:20;;;;;;;4.70;0.68;;;23.50;99.90;;;;;;5003288;28;20467;-73
2022/07/04 11:54:47;;;;;;;0.52;0.30;;;23.30;99.90;;;;;;5004576;28;20034;-67
2022/07/04 11:57:22;;;;;;;1.08;0.40;;;23.30;99.90;;;;;;5003442;28;20030;-68
2022/07/04 12:00:11;;;;;;;0.20;0.20;;;23.30;99.90;;;;;;5003849;28;20046;-69
2022/07/04 12:02:38;;;;;;;2.08;0.60;;;23.30;99.90;;;;;;5004318;28;20038;-67
2022/07/04 12:05:06;;;;;;;0.65;0.32;;;23.10;99.90;;;;;;5003813;28;20022;-69
2022/07/04 12:07:34;;;;;;;1.85;0.50;;;23.00;99.90;;;;;;5003594;28;20118;-69
2022/07/04 12:10:32;;;;;;;3.72;0.63;;;23.10;99.90;;;;;;5000796;28;20072;-68
2022/07/04 12:13:06;;;;;;;0.30;0.28;;;23.20;99.90;;;;;;5001455;28;20076;-68
2022/07/04 12:15:43;;;;;;;1.65;0.50;;;23.50;99.90;;;;;;5003918;28;20089;-68
2022/07/04 12:18:22;;;;;;;0.47;0.45;;;24.00;99.90;;;;;;5003967;28;20030;-67
2022/07/04 12:20:51;;;;;;;0.70;0.47;;;24.20;99.90;;;;;;5002650;28;20076;-71
2022/07/04 12:23:20;;;;;;;0.93;0.38;;;24.30;99.90;;;;;;5003595;28;20034;-69
2022/07/04 12:25:48;;;;;;;1.63;0.30;;;24.10;99.90;;;;;;5004091;28;20081;-70
2022/07/04 12:28:15;;;;;;;1.08;0.38;;;24.20;99.90;;;;;;5004111;28;20054;-69
2022/07/04 12:30:58;;;;;;;0.30;0.30;;;24.30;99.90;;;;;;5003802;28;20032;-71
2022/07/04 12:33:28;;;;;;;4.28;0.45;;;24.50;99.90;;;;;;5003913;28;20050;-68
2022/07/04 12:35:59;;;;;;;1.05;0.50;;;24.60;99.90;;;;;;5001089;28;20149;-70
2022/07/04 12:38:27;;;;;;;1.73;0.50;;;24.70;99.90;;;;;;5002114;28;20046;-69
2022/07/04 12:41:07;;;;;;;0.88;0.60;;;24.70;99.90;;;;;;5000775;28;20053;-67
2022/07/04 12:43:42;;;;;;;1.05;0.40;;;24.70;99.90;;;;;;5000243;28;20042;-67
2022/07/04 12:46:26;;;;;;;1.35;0.65;;;24.30;99.90;;;;;;5001533;28;20454;-70
2022/07/04 12:48:54;;;;;;;0.88;0.63;;;24.00;99.90;;;;;;5001511;28;20030;-70
2022/07/04 12:51:25;;;;;;;1.92;0.80;;;23.80;99.90;;;;;;5003704;28;20122;-70
2022/07/04 12:53:53;;;;;;;2.40;0.73;;;23.40;99.90;;;;;;5003255;28;20046;-71
2022/07/04 12:56:29;;;;;;;0.98;0.63;;;23.10;99.90;;;;;;5002939;28;20047;-71
2022/07/04 12:58:55;;;;;;;0.95;0.50;;;22.80;99.90;;;;;;5003497;28;20030;-73
2022/07/04 13:01:21;;;;;;;1.45;0.63;;;22.70;99.90;;;;;;5003484;28;20030;-69
2022/07/04 13:03:47;;;;;;;1.20;0.65;;;22.60;99.90;;;;;;5003169;28;20126;-72
2022/07/04 13:06:13;;;;;;;2.05;0.90;;;22.60;99.90;;;;;;5000805;28;20038;-69
2022/07/04 13:08:38;;;;;;;2.65;0.75;;;22.70;99.90;;;;;;4995313;28;20041;-70
2022/07/04 13:13:48;;;;;;;0.60;0.50;;;23.10;99.90;;;;;;5002778;28;20037;-68
2022/07/04 13:16:14;;;;;;;2.45;0.73;;;23.10;99.90;;;;;;5002054;28;21190;-69